Time;durP1;ratioP1;P1;durP2;ratioP2;P2;SDS_P1;SDS_P2;PMS_P1;PMS_P2;Temp;Humidity;BMP_temperature;BMP_pressure;BME280_temperature;BME280_humidity;BME280_pressure;Samples;Min_cycle;Max_cycle;Signal;HPM_P1;HPM_P2
2021/04/11 00:00:22;;;;;;;0.10;0.10;;;;;;;;;;5071469;28;20252;-68
2021/04/11 00:02:49;;;;;;;0.20;0.20;;;;;;;;;;5071436;28;20165;-68
2021/04/11 00:05:16;;;;;;;0.20;0.20;;;;;;;;;;5071406;28;20220;-68
2021/04/11 00:07:42;;;;;;;0.55;0.55;;;;;;;;;;5053269;28;20201;-68
2021/04/11 00:10:09;;;;;;;0.95;0.95;;;;;;;;;;5071309;28;20260;-68
2021/04/11 00:12:36;;;;;;;0.20;0.20;;;;;;;;;;5053400;28;20175;-68
2021/04/11 00:15:04;;;;;;;0.35;0.35;;;;;;;;;;5053316;28;20189;-68
2021/04/11 00:17:31;;;;;;;0.10;0.10;;;;;;;;;;5053122;28;20169;-68
2021/04/11 00:19:57;;;;;;;0.30;0.30;;;;;;;;;;5071056;28;20200;-68
2021/04/11 00:22:23;;;;;;;0.75;0.75;;;;;;;;;;5083208;28;20214;-68
2021/04/11 00:24:50;;;;;;;0.28;0.28;;;;;;;;;;5073060;28;20244;-68
2021/04/11 00:27:16;;;;;;;0.13;0.13;;;;;;;;;;5090938;28;20196;-68
2021/04/11 00:29:43;;;;;;;0.10;0.10;;;;;;;;;;5090975;28;20196;-68
2021/04/11 00:32:10;;;;;;;0.00;0.00;;;;;;;;;;5091018;28;20176;-68
2021/04/11 00:34:36;;;;;;;0.43;0.43;;;;;;;;;;5090986;28;20167;-68
2021/04/11 00:37:02;;;;;;;0.13;0.13;;;;;;;;;;5090893;28;20203;-68
2021/04/11 00:39:28;;;;;;;0.10;0.10;;;;;;;;;;5090742;28;20196;-68
2021/04/11 00:41:57;;;;;;;0.70;0.70;;;;;;;;;;5090875;28;20171;-68
2021/04/11 00:44:23;;;;;;;0.10;0.10;;;;;;;;;;5073788;28;20177;-68
2021/04/11 00:46:52;;;;;;;0.00;0.00;;;;;;;;;;5052624;28;20226;-68
2021/04/11 00:49:26;;;;;;;0.10;0.10;;;;;;;;;;5052545;28;20499;-68
2021/04/11 00:51:53;;;;;;;0.10;0.10;;;;;;;;;;5070420;28;20219;-68
2021/04/11 00:54:20;;;;;;;0.20;0.20;;;;;;;;;;5070456;28;20529;-68
2021/04/11 00:56:46;;;;;;;0.10;0.10;;;;;;;;;;5070506;28;20171;-69
2021/04/11 00:59:12;;;;;;;0.28;0.28;;;;;;;;;;5070308;28;20203;-68
2021/04/11 01:01:39;;;;;;;0.57;0.57;;;;;;;;;;5052508;28;20161;-69
2021/04/11 01:04:07;;;;;;;0.20;0.20;;;;;;;;;;5070355;28;20149;-68
2021/04/11 01:06:36;;;;;;;0.20;0.20;;;;;;;;;;5070163;28;20194;-69
2021/04/11 01:09:09;;;;;;;0.25;0.25;;;;;;;;;;5052290;28;20259;-68
2021/04/11 01:11:35;;;;;;;0.05;0.05;;;;;;;;;;5052214;28;20168;-69
2021/04/11 01:14:05;;;;;;;0.30;0.30;;;;;;;;;;5070193;28;20157;-68
2021/04/11 01:16:32;;;;;;;0.10;0.10;;;;;;;;;;5070149;28;20163;-69
2021/04/11 01:18:59;;;;;;;0.22;0.22;;;;;;;;;;5069428;28;20196;-69
2021/04/11 01:21:30;;;;;;;0.10;0.10;;;;;;;;;;5069829;28;20168;-69
2021/04/11 01:24:12;;;;;;;0.32;0.32;;;;;;;;;;5051982;28;20172;-68
2021/04/11 01:26:39;;;;;;;0.55;0.55;;;;;;;;;;5069688;28;20184;-68
2021/04/11 01:29:05;;;;;;;0.15;0.15;;;;;;;;;;5069822;28;20242;-68
2021/04/11 01:31:33;;;;;;;0.10;0.10;;;;;;;;;;5069788;28;20185;-68
2021/04/11 01:34:00;;;;;;;0.10;0.10;;;;;;;;;;5069836;28;20156;-68
2021/04/11 01:36:27;;;;;;;0.10;0.10;;;;;;;;;;5069696;28;20172;-68
2021/04/11 01:38:54;;;;;;;0.20;0.20;;;;;;;;;;5069628;28;20763;-69
2021/04/11 01:41:30;;;;;;;0.30;0.30;;;;;;;;;;5069621;28;20191;-68
2021/04/11 01:43:58;;;;;;;0.20;0.20;;;;;;;;;;5051656;28;20178;-68
2021/04/11 01:46:24;;;;;;;0.10;0.10;;;;;;;;;;5069553;28;20195;-68
2021/04/11 01:48:51;;;;;;;0.70;0.65;;;;;;;;;;5051472;28;20216;-69
2021/04/11 01:51:18;;;;;;;0.10;0.10;;;;;;;;;;5051474;28;20301;-68
2021/04/11 01:53:46;;;;;;;0.20;0.20;;;;;;;;;;5069455;28;20157;-68
2021/04/11 01:56:13;;;;;;;0.43;0.43;;;;;;;;;;5069390;28;20164;-68
2021/04/11 01:58:40;;;;;;;0.43;0.43;;;;;;;;;;5069368;28;20692;-68
2021/04/11 02:01:10;;;;;;;0.30;0.30;;;;;;;;;;5068022;28;20197;-68
2021/04/11 02:03:36;;;;;;;0.10;0.10;;;;;;;;;;5067940;28;20210;-69
2021/04/11 02:06:05;;;;;;;0.40;0.40;;;;;;;;;;5069166;28;20164;-68
2021/04/11 02:08:32;;;;;;;0.00;0.00;;;;;;;;;;5068797;28;20160;-68
2021/04/11 02:10:58;;;;;;;0.17;0.17;;;;;;;;;;5069075;28;20191;-68
2021/04/11 02:13:29;;;;;;;0.30;0.30;;;;;;;;;;5069177;28;20160;-68
2021/04/11 02:15:57;;;;;;;0.85;0.82;;;;;;;;;;5069166;28;20641;-68
2021/04/11 02:18:23;;;;;;;0.10;0.10;;;;;;;;;;5069158;28;20546;-69
2021/04/11 02:20:51;;;;;;;0.00;0.00;;;;;;;;;;5068938;28;20196;-69
2021/04/11 02:23:17;;;;;;;0.10;0.10;;;;;;;;;;5067842;28;20658;-69
2021/04/11 02:25:46;;;;;;;0.43;0.43;;;;;;;;;;5069094;28;20169;-68
2021/04/11 02:28:13;;;;;;;0.00;0.00;;;;;;;;;;5068979;28;20276;-68
2021/04/11 02:30:43;;;;;;;0.10;0.10;;;;;;;;;;5068158;28;20258;-68
2021/04/11 02:33:10;;;;;;;0.28;0.28;;;;;;;;;;5068860;28;20167;-68
2021/04/11 02:35:36;;;;;;;0.03;0.03;;;;;;;;;;5067697;28;20558;-68
2021/04/11 02:38:04;;;;;;;0.30;0.30;;;;;;;;;;5068900;28;20168;-68
2021/04/11 02:40:32;;;;;;;0.95;0.95;;;;;;;;;;5068840;28;20196;-68
2021/04/11 02:42:59;;;;;;;0.10;0.10;;;;;;;;;;5068892;28;20183;-68
2021/04/11 02:45:28;;;;;;;0.13;0.13;;;;;;;;;;5067432;28;20187;-68
2021/04/11 02:47:57;;;;;;;0.22;0.22;;;;;;;;;;5068668;28;20188;-68
2021/04/11 02:50:25;;;;;;;0.52;0.52;;;;;;;;;;5068330;28;20585;-68
2021/04/11 02:52:56;;;;;;;0.20;0.20;;;;;;;;;;5068670;28;20177;-69
2021/04/11 02:55:24;;;;;;;0.30;0.30;;;;;;;;;;5067514;28;20556;-68
2021/04/11 02:57:50;;;;;;;0.20;0.20;;;;;;;;;;5068676;28;20502;-68
2021/04/11 03:00:19;;;;;;;0.03;0.03;;;;;;;;;;5067195;28;20204;-68
2021/04/11 03:02:45;;;;;;;0.22;0.22;;;;;;;;;;5067437;28;20180;-68
2021/04/11 03:05:13;;;;;;;0.47;0.47;;;;;;;;;;5067270;28;20269;-68
2021/04/11 03:07:44;;;;;;;0.30;0.30;;;;;;;;;;5068439;28;20215;-68
2021/04/11 03:10:22;;;;;;;0.08;0.08;;;;;;;;;;5068553;28;20197;-68
2021/04/11 03:12:50;;;;;;;1.02;0.90;;;;;;;;;;5067154;28;20254;-68
2021/04/11 03:15:17;;;;;;;0.30;0.30;;;;;;;;;;5068426;28;20153;-68
2021/04/11 03:17:44;;;;;;;0.10;0.10;;;;;;;;;;5068144;28;20165;-68
2021/04/11 03:20:15;;;;;;;0.08;0.08;;;;;;;;;;5068426;28;20216;-68
2021/04/11 03:22:41;;;;;;;1.45;1.35;;;;;;;;;;5068615;28;20292;-68
2021/04/11 03:25:09;;;;;;;0.10;0.10;;;;;;;;;;5068336;28;20173;-69
2021/04/11 03:27:40;;;;;;;12.57;0.75;;;;;;;;;;5068355;28;20192;-69
2021/04/11 03:30:13;;;;;;;0.03;0.03;;;;;;;;;;5068396;28;20474;-69
2021/04/11 03:33:05;;;;;;;0.30;0.30;;;;;;;;;;5068442;28;20243;-68
2021/04/11 03:35:33;;;;;;;0.10;0.10;;;;;;;;;;5064679;28;20189;-68
2021/04/11 03:38:01;;;;;;;0.30;0.30;;;;;;;;;;5068319;28;20198;-69
2021/04/11 03:40:30;;;;;;;1.23;1.13;;;;;;;;;;5066711;28;20200;-68
2021/04/11 03:43:01;;;;;;;0.25;0.25;;;;;;;;;;5069985;28;20165;-68
2021/04/11 03:45:32;;;;;;;0.65;0.28;;;;;;;;;;5071657;28;20191;-68
2021/04/11 03:48:18;;;;;;;0.52;0.43;;;;;;;;;;5070349;28;20216;-69
2021/04/11 03:50:54;;;;;;;0.00;0.00;;;;;;;;;;5071253;28;20258;-68
2021/04/11 03:53:31;;;;;;;0.00;0.00;;;;;;;;;;5071611;28;20172;-68
2021/04/11 03:56:04;;;;;;;0.38;0.30;;;;;;;;;;5070170;28;20184;-68
2021/04/11 03:58:34;;;;;;;0.05;0.05;;;;;;;;;;5071653;28;20176;-68
2021/04/11 04:01:06;;;;;;;0.40;0.40;;;;;;;;;;5071468;28;20199;-68
2021/04/11 04:03:33;;;;;;;0.68;0.68;;;;;;;;;;5070292;28;20197;-68
2021/04/11 04:06:09;;;;;;;0.25;0.25;;;;;;;;;;5070077;28;20229;-68
2021/04/11 04:08:35;;;;;;;0.20;0.20;;;;;;;;;;5071318;28;20188;-68
2021/04/11 04:11:07;;;;;;;0.13;0.13;;;;;;;;;;5071333;28;20212;-68
2021/04/11 04:13:52;;;;;;;5.00;2.45;;;;;;;;;;5069940;28;20177;-68
2021/04/11 04:16:20;;;;;;;0.85;0.85;;;;;;;;;;5071233;28;20527;-68
2021/04/11 04:18:46;;;;;;;0.30;0.30;;;;;;;;;;5069777;28;20199;-69
2021/04/11 04:21:18;;;;;;;0.35;0.35;;;;;;;;;;5069617;28;20206;-69
2021/04/11 04:23:44;;;;;;;0.17;0.17;;;;;;;;;;5071017;28;20161;-69
2021/04/11 04:26:16;;;;;;;0.57;0.57;;;;;;;;;;5070984;28;20165;-69
2021/04/11 04:28:55;;;;;;;0.75;0.75;;;;;;;;;;5071011;28;20183;-70
2021/04/11 04:31:26;;;;;;;0.65;0.65;;;;;;;;;;5070960;28;20168;-69
2021/04/11 04:33:59;;;;;;;0.35;0.35;;;;;;;;;;5069692;28;20185;-68
2021/04/11 04:36:28;;;;;;;0.20;0.20;;;;;;;;;;5070806;28;20165;-68
2021/04/11 04:39:03;;;;;;;0.10;0.10;;;;;;;;;;5070771;28;20164;-68
2021/04/11 04:41:41;;;;;;;0.85;0.85;;;;;;;;;;5070593;28;20168;-69
2021/04/11 04:44:34;;;;;;;0.17;0.17;;;;;;;;;;5070776;28;20176;-68
2021/04/11 04:47:16;;;;;;;0.25;0.25;;;;;;;;;;5030279;28;20218;-68
2021/04/11 04:49:51;;;;;;;0.30;0.30;;;;;;;;;;5070585;28;20203;-68
2021/04/11 04:52:24;;;;;;;0.10;0.10;;;;;;;;;;5070304;28;20220;-68
2021/04/11 04:54:50;;;;;;;0.10;0.10;;;;;;;;;;5069689;28;20164;-69
2021/04/11 04:57:19;;;;;;;0.00;0.00;;;;;;;;;;5069209;28;20206;-69
2021/04/11 04:59:50;;;;;;;0.63;0.63;;;;;;;;;;5070442;28;20188;-69
2021/04/11 05:02:17;;;;;;;0.63;0.63;;;;;;;;;;5070390;28;20173;-69
2021/04/11 05:04:48;;;;;;;0.08;0.08;;;;;;;;;;5070429;28;20158;-69
2021/04/11 05:07:16;;;;;;;0.85;0.85;;;;;;;;;;5070116;28;20245;-68
2021/04/11 05:09:48;;;;;;;0.30;0.30;;;;;;;;;;5070168;28;20668;-69
2021/04/11 05:12:27;;;;;;;0.40;0.40;;;;;;;;;;5070244;28;20157;-69
2021/04/11 05:14:59;;;;;;;1.02;1.02;;;;;;;;;;5070061;28;20171;-69
2021/04/11 05:17:28;;;;;;;0.40;0.40;;;;;;;;;;5070038;28;20633;-68
2021/04/11 05:19:57;;;;;;;0.30;0.30;;;;;;;;;;5069976;28;20198;-68
2021/04/11 05:22:28;;;;;;;0.00;0.00;;;;;;;;;;5068624;28;20177;-69
2021/04/11 05:24:58;;;;;;;0.43;0.20;;;;;;;;;;5069985;28;20169;-68
2021/04/11 05:27:43;;;;;;;0.25;0.25;;;;;;;;;;5068622;28;20204;-69
2021/04/11 05:30:09;;;;;;;0.10;0.10;;;;;;;;;;5069624;28;20196;-69
2021/04/11 05:32:36;;;;;;;0.00;0.00;;;;;;;;;;5069844;28;20164;-68
2021/04/11 05:35:03;;;;;;;0.08;0.05;;;;;;;;;;5069682;28;20169;-69
2021/04/11 05:37:35;;;;;;;0.00;0.00;;;;;;;;;;5069763;28;20169;-68
2021/04/11 05:40:04;;;;;;;0.00;0.00;;;;;;;;;;5069485;28;20354;-69
2021/04/11 05:42:30;;;;;;;0.10;0.10;;;;;;;;;;5069588;28;20157;-69
2021/04/11 05:45:03;;;;;;;1.30;0.45;;;;;;;;;;5068278;28;20176;-68
2021/04/11 05:47:36;;;;;;;1.00;1.00;;;;;;;;;;5069477;28;20185;-68
2021/04/11 05:50:06;;;;;;;0.65;0.60;;;;;;;;;;5069188;28;20199;-69
2021/04/11 05:52:38;;;;;;;0.08;0.08;;;;;;;;;;5069469;28;20173;-68
2021/04/11 05:55:05;;;;;;;0.20;0.20;;;;;;;;;;5069359;28;20153;-69
2021/04/11 05:57:34;;;;;;;0.30;0.30;;;;;;;;;;5069347;28;20610;-69
2021/04/11 06:00:04;;;;;;;0.10;0.10;;;;;;;;;;5069320;28;20250;-69
2021/04/11 06:02:38;;;;;;;0.35;0.35;;;;;;;;;;5069150;28;20175;-68
2021/04/11 06:05:13;;;;;;;0.47;0.47;;;;;;;;;;5067887;28;20172;-69
2021/04/11 06:07:50;;;;;;;0.22;0.22;;;;;;;;;;5069086;28;20188;-68
2021/04/11 06:10:24;;;;;;;0.20;0.20;;;;;;;;;;5069145;28;20188;-68
2021/04/11 06:12:56;;;;;;;0.03;0.03;;;;;;;;;;5069232;28;20161;-68
2021/04/11 06:15:28;;;;;;;0.00;0.00;;;;;;;;;;5069148;28;20157;-69
2021/04/11 06:17:55;;;;;;;0.38;0.38;;;;;;;;;;5068996;28;20161;-69
2021/04/11 06:20:22;;;;;;;1.95;0.93;;;;;;;;;;5068708;28;20321;-69
2021/04/11 06:22:48;;;;;;;0.03;0.03;;;;;;;;;;5068862;28;20160;-69
2021/04/11 06:25:18;;;;;;;0.75;0.30;;;;;;;;;;5067706;28;20197;-69
2021/04/11 06:27:55;;;;;;;0.40;0.40;;;;;;;;;;5068955;28;20184;-69
2021/04/11 06:30:29;;;;;;;7.03;1.75;;;;;;;;;;5067494;28;20203;-69
2021/04/11 06:32:58;;;;;;;0.98;0.43;;;;;;;;;;5068961;28;20156;-69
2021/04/11 06:35:27;;;;;;;0.00;0.00;;;;;;;;;;5068799;28;20157;-69
2021/04/11 06:37:56;;;;;;;0.25;0.25;;;;;;;;;;5068995;28;20161;-68
2021/04/11 06:40:40;;;;;;;0.20;0.20;;;;;;;;;;5067318;28;20215;-69
2021/04/11 06:43:09;;;;;;;0.38;0.28;;;;;;;;;;5068741;28;20161;-68
2021/04/11 06:45:45;;;;;;;0.22;0.22;;;;;;;;;;5068797;28;20172;-69
2021/04/11 06:48:17;;;;;;;0.30;0.30;;;;;;;;;;5067413;28;20345;-69
2021/04/11 06:50:43;;;;;;;0.98;0.98;;;;;;;;;;5068606;28;20231;-69
2021/04/11 06:53:19;;;;;;;0.50;0.50;;;;;;;;;;5068684;28;20240;-68
2021/04/11 06:55:57;;;;;;;0.30;0.30;;;;;;;;;;5068615;28;20216;-69
2021/04/11 06:58:41;;;;;;;0.98;0.60;;;;;;;;;;5067467;28;20176;-69
2021/04/11 07:01:31;;;;;;;0.52;0.52;;;;;;;;;;5068584;28;20193;-69
2021/04/11 07:04:07;;;;;;;0.30;0.30;;;;;;;;;;5067435;28;20230;-69
2021/04/11 07:06:49;;;;;;;1.25;0.95;;;;;;;;;;5067128;28;20207;-68
2021/04/11 07:09:15;;;;;;;0.60;0.60;;;;;;;;;;5067235;28;20260;-68
2021/04/11 07:11:53;;;;;;;0.10;0.10;;;;;;;;;;5067206;28;20173;-69
2021/04/11 07:14:26;;;;;;;1.55;0.68;;;;;;;;;;5068687;28;20181;-68
2021/04/11 07:16:52;;;;;;;0.50;0.50;;;;;;;;;;5067103;28;20187;-69
2021/04/11 07:19:30;;;;;;;2.72;0.68;;;;;;;;;;5072351;28;20196;-69
2021/04/11 07:22:00;;;;;;;0.13;0.13;;;;;;;;;;5070916;28;20169;-69
2021/04/11 07:24:37;;;;;;;0.43;0.43;;;;;;;;;;5072232;28;20180;-68
2021/04/11 07:27:03;;;;;;;0.22;0.22;;;;;;;;;;5065826;28;20295;-69
2021/04/11 07:29:30;;;;;;;0.17;0.17;;;;;;;;;;5066556;28;20299;-69
2021/04/11 07:32:14;;;;;;;0.20;0.20;;;;;;;;;;5072093;28;20179;-69
2021/04/11 07:34:59;;;;;;;0.35;0.35;;;;;;;;;;5071972;28;20161;-69
2021/04/11 07:37:44;;;;;;;0.40;0.25;;;;;;;;;;5053234;28;20179;-69
2021/04/11 07:40:16;;;;;;;0.20;0.20;;;;;;;;;;5071706;28;20196;-74
2021/04/11 07:42:45;;;;;;;0.22;0.22;;;;;;;;;;5071591;28;20195;-74
2021/04/11 07:45:14;;;;;;;0.55;0.55;;;;;;;;;;5071791;28;20199;-74
2021/04/11 07:47:59;;;;;;;0.10;0.10;;;;;;;;;;5070642;28;20196;-74
2021/04/11 07:50:31;;;;;;;0.00;0.00;;;;;;;;;;5067068;28;20225;-74
2021/04/11 07:52:57;;;;;;;0.75;0.75;;;;;;;;;;5051552;28;20180;-74
2021/04/11 07:55:32;;;;;;;0.00;0.00;;;;;;;;;;5051320;28;20172;-73
2021/04/11 07:58:08;;;;;;;0.10;0.10;;;;;;;;;;5050443;28;20176;-74
2021/04/11 08:00:44;;;;;;;0.10;0.10;;;;;;;;;;5051211;28;20235;-73
2021/04/11 08:03:10;;;;;;;0.10;0.10;;;;;;;;;;5044479;28;20180;-74
2021/04/11 08:05:55;;;;;;;0.32;0.32;;;;;;;;;;5033626;28;20181;-74
2021/04/11 08:08:39;;;;;;;0.60;0.57;;;;;;;;;;5050333;28;20257;-73
2021/04/11 08:11:14;;;;;;;0.10;0.10;;;;;;;;;;5033292;28;20541;-73
2021/04/11 08:13:47;;;;;;;0.20;0.20;;;;;;;;;;5051239;28;20157;-74
2021/04/11 08:16:19;;;;;;;0.00;0.00;;;;;;;;;;5051131;28;20182;-74
2021/04/11 08:19:01;;;;;;;0.25;0.25;;;;;;;;;;5050304;28;20165;-73
2021/04/11 08:21:50;;;;;;;0.08;0.08;;;;;;;;;;5051149;28;20157;-74
2021/04/11 08:24:35;;;;;;;0.10;0.10;;;;;;;;;;5033377;28;20252;-73
2021/04/11 08:27:10;;;;;;;0.50;0.50;;;;;;;;;;5032905;28;20238;-74
2021/04/11 08:30:01;;;;;;;0.68;0.25;;;;;;;;;;5031209;28;20204;-73
2021/04/11 08:32:27;;;;;;;0.00;0.00;;;;;;;;;;5027484;28;20185;-74
2021/04/11 08:35:06;;;;;;;0.10;0.10;;;;;;;;;;5050756;28;20167;-73
2021/04/11 08:37:40;;;;;;;0.20;0.20;;;;;;;;;;5032503;28;20166;-73
2021/04/11 08:40:07;;;;;;;0.40;0.40;;;;;;;;;;5023372;28;20347;-73
2021/04/11 08:42:41;;;;;;;0.30;0.30;;;;;;;;;;5030143;28;20222;-74
2021/04/11 08:45:16;;;;;;;0.10;0.10;;;;;;;;;;5030817;28;20666;-73
2021/04/11 08:47:51;;;;;;;0.75;0.57;;;;;;;;;;5030387;28;20204;-74
2021/04/11 08:50:36;;;;;;;1.70;0.70;;;;;;;;;;5033644;28;20623;-74
2021/04/11 08:53:08;;;;;;;0.00;0.00;;;;;;;;;;5049396;28;20549;-74
2021/04/11 08:55:41;;;;;;;0.17;0.17;;;;;;;;;;5050320;28;20229;-73
2021/04/11 08:58:36;;;;;;;0.65;0.65;;;;;;;;;;5050295;28;20172;-74
2021/04/11 09:01:18;;;;;;;0.00;0.00;;;;;;;;;;5037494;28;20256;-73
2021/04/11 09:03:55;;;;;;;0.00;0.00;;;;;;;;;;5074573;28;20185;-73
2021/04/11 09:06:40;;;;;;;0.10;0.10;;;;;;;;;;5079806;28;20229;-73
2021/04/11 09:09:06;;;;;;;0.00;0.00;;;;;;;;;;5090045;28;20202;-75
2021/04/11 09:11:46;;;;;;;0.10;0.10;;;;;;;;;;5072722;28;20169;-74
2021/04/11 09:14:31;;;;;;;0.10;0.10;;;;;;;;;;5068230;28;20440;-73
2021/04/11 09:17:11;;;;;;;0.05;0.05;;;;;;;;;;5070058;28;20160;-74
2021/04/11 09:19:37;;;;;;;0.00;0.00;;;;;;;;;;5069819;28;20196;-73
2021/04/11 09:22:10;;;;;;;0.08;0.08;;;;;;;;;;5051861;28;20184;-73
2021/04/11 09:24:39;;;;;;;0.10;0.10;;;;;;;;;;5051020;28;20537;-73
2021/04/11 09:27:08;;;;;;;0.10;0.10;;;;;;;;;;5069756;28;20216;-74
2021/04/11 09:29:35;;;;;;;0.10;0.10;;;;;;;;;;5069506;28;20202;-74
2021/04/11 09:32:19;;;;;;;0.10;0.10;;;;;;;;;;5069766;28;20149;-73
2021/04/11 09:34:54;;;;;;;1.35;0.70;;;;;;;;;;5050612;28;20180;-74
2021/04/11 09:37:41;;;;;;;0.05;0.05;;;;;;;;;;5069530;28;20164;-73
2021/04/11 09:40:11;;;;;;;0.10;0.10;;;;;;;;;;5052895;28;20216;-73
2021/04/11 09:42:39;;;;;;;0.00;0.00;;;;;;;;;;5089538;28;20620;-74
2021/04/11 09:45:13;;;;;;;0.50;0.47;;;;;;;;;;5071108;28;20167;-73
2021/04/11 09:47:51;;;;;;;0.08;0.08;;;;;;;;;;5089135;28;20200;-73
2021/04/11 09:50:17;;;;;;;0.10;0.10;;;;;;;;;;5071077;28;20231;-73
2021/04/11 09:53:02;;;;;;;0.30;0.30;;;;;;;;;;5089338;28;20205;-74
2021/04/11 09:55:33;;;;;;;0.10;0.10;;;;;;;;;;5071179;28;20259;-73
2021/04/11 09:58:01;;;;;;;0.10;0.10;;;;;;;;;;5088186;28;20239;-74
2021/04/11 10:00:42;;;;;;;0.63;0.52;;;;;;;;;;5088840;28;20718;-73
2021/04/11 10:03:27;;;;;;;0.15;0.15;;;;;;;;;;5088566;28;20620;-73
2021/04/11 10:06:16;;;;;;;0.60;0.20;;;;;;;;;;5089049;28;20182;-73
2021/04/11 10:09:17;;;;;;;0.10;0.10;;;;;;;;;;5062234;28;20212;-75
2021/04/11 10:12:07;;;;;;;0.10;0.10;;;;;;;;;;4968423;29;20191;-74
2021/04/11 10:14:57;;;;;;;0.10;0.10;;;;;;;;;;5045466;28;20185;-75
2021/04/11 10:17:46;;;;;;;2.10;0.30;;;;;;;;;;5038305;28;20205;-75
2021/04/11 10:20:22;;;;;;;0.10;0.10;;;;;;;;;;5020380;28;20212;-74
2021/04/11 10:22:48;;;;;;;0.00;0.00;;;;;;;;;;5048881;28;20165;-73
2021/04/11 10:25:21;;;;;;;0.15;0.15;;;;;;;;;;5048878;28;20165;-74
2021/04/11 10:27:55;;;;;;;0.00;0.00;;;;;;;;;;5030918;28;20204;-74
2021/04/11 10:30:22;;;;;;;0.20;0.20;;;;;;;;;;5047591;28;20188;-74
2021/04/11 10:32:51;;;;;;;0.00;0.00;;;;;;;;;;5048855;28;20157;-74
2021/04/11 10:35:23;;;;;;;0.10;0.10;;;;;;;;;;5031016;28;20630;-74
2021/04/11 10:37:52;;;;;;;0.08;0.08;;;;;;;;;;5048664;28;20161;-73
2021/04/11 10:40:28;;;;;;;0.00;0.00;;;;;;;;;;5047592;28;20260;-74
2021/04/11 10:42:57;;;;;;;0.30;0.10;;;;;;;;;;5030980;28;20179;-73
2021/04/11 10:45:31;;;;;;;0.10;0.10;;;;;;;;;;5048597;28;20165;-73
2021/04/11 10:47:57;;;;;;;0.05;0.05;;;;;;;;;;5030804;28;20204;-73
2021/04/11 10:50:42;;;;;;;0.20;0.20;;;;;;;;;;5047427;28;20258;-74
2021/04/11 10:53:17;;;;;;;0.08;0.08;;;;;;;;;;5050585;28;20232;-73
2021/04/11 10:56:02;;;;;;;0.03;0.03;;;;;;;;;;5052274;28;20157;-74
2021/04/11 10:58:49;;;;;;;0.00;0.00;;;;;;;;;;5052422;28;20196;-73
2021/04/11 11:01:34;;;;;;;0.00;0.00;;;;;;;;;;5051491;28;20188;-73
2021/04/11 11:04:00;;;;;;;0.25;0.25;;;;;;;;;;5034574;28;20177;-74
2021/04/11 11:06:52;;;;;;;0.40;0.40;;;;;;;;;;5052417;28;20165;-73
2021/04/11 11:09:24;;;;;;;0.00;0.00;;;;;;;;;;5034591;28;20223;-73
2021/04/11 11:11:59;;;;;;;0.20;0.20;;;;;;;;;;5071475;28;20200;-73
2021/04/11 11:14:49;;;;;;;0.00;0.00;;;;;;;;;;5072085;28;20590;-73
2021/04/11 11:17:15;;;;;;;0.00;0.00;;;;;;;;;;5071477;28;20189;-73
2021/04/11 11:19:53;;;;;;;0.00;0.00;;;;;;;;;;5071815;28;20203;-74
2021/04/11 11:22:37;;;;;;;0.05;0.05;;;;;;;;;;5072049;28;20165;-73
2021/04/11 11:25:22;;;;;;;0.00;0.00;;;;;;;;;;5071444;28;20184;-73
2021/04/11 11:27:57;;;;;;;0.00;0.00;;;;;;;;;;5071954;28;20539;-74
2021/04/11 11:30:24;;;;;;;0.00;0.00;;;;;;;;;;5071957;28;20238;-73
2021/04/11 11:32:50;;;;;;;0.10;0.10;;;;;;;;;;5054067;28;20681;-73
2021/04/11 11:35:16;;;;;;;0.25;0.25;;;;;;;;;;5071954;28;20187;-73
2021/04/11 11:37:52;;;;;;;0.00;0.00;;;;;;;;;;5071910;28;20192;-74
2021/04/11 11:40:30;;;;;;;0.08;0.08;;;;;;;;;;5071856;28;20190;-74
2021/04/11 11:43:14;;;;;;;0.10;0.10;;;;;;;;;;5071813;28;20192;-74
2021/04/11 11:45:47;;;;;;;0.20;0.15;;;;;;;;;;5071679;28;20184;-74
2021/04/11 11:48:20;;;;;;;0.25;0.25;;;;;;;;;;5053744;28;20220;-74
2021/04/11 11:50:57;;;;;;;0.00;0.00;;;;;;;;;;5057476;28;20226;-73
2021/04/11 11:53:26;;;;;;;0.65;0.65;;;;;;;;;;5070240;28;20232;-73
2021/04/11 11:56:04;;;;;;;0.20;0.20;;;;;;;;;;5071617;28;20172;-73
2021/04/11 11:58:36;;;;;;;1.65;0.40;;;;;;;;;;5071496;28;20180;-73
2021/04/11 12:01:05;;;;;;;0.32;0.32;;;;;;;;;;5071605;28;20169;-73
2021/04/11 12:03:33;;;;;;;0.00;0.00;;;;;;;;;;5071184;28;20207;-74
2021/04/11 12:06:23;;;;;;;0.08;0.08;;;;;;;;;;5067778;28;20184;-73
2021/04/11 12:09:08;;;;;;;0.00;0.00;;;;;;;;;;5034930;28;20189;-74
2021/04/11 12:11:39;;;;;;;0.28;0.28;;;;;;;;;;5051204;28;20169;-74
2021/04/11 12:14:05;;;;;;;0.45;0.20;;;;;;;;;;5033123;28;20199;-74
2021/04/11 12:16:44;;;;;;;0.00;0.00;;;;;;;;;;5033377;28;20169;-74
2021/04/11 12:19:19;;;;;;;0.73;0.22;;;;;;;;;;5033396;28;20183;-74
2021/04/11 12:21:52;;;;;;;0.32;0.32;;;;;;;;;;5033215;28;20185;-74
2021/04/11 12:24:20;;;;;;;0.22;0.22;;;;;;;;;;5051067;28;20189;-74
2021/04/11 12:26:50;;;;;;;0.10;0.10;;;;;;;;;;5033067;28;20197;-74
2021/04/11 12:29:19;;;;;;;0.10;0.10;;;;;;;;;;5051025;28;20173;-74
2021/04/11 12:31:54;;;;;;;0.20;0.20;;;;;;;;;;5050713;28;20162;-74
2021/04/11 12:34:38;;;;;;;0.00;0.00;;;;;;;;;;5032933;28;20219;-74
2021/04/11 12:37:10;;;;;;;0.30;0.30;;;;;;;;;;5050216;28;20172;-74
2021/04/11 12:39:38;;;;;;;0.00;0.00;;;;;;;;;;5050734;28;20229;-74
2021/04/11 12:42:22;;;;;;;0.00;0.00;;;;;;;;;;5050785;28;20162;-74
2021/04/11 12:45:01;;;;;;;0.00;0.00;;;;;;;;;;5050616;28;20191;-74
2021/04/11 12:47:36;;;;;;;0.00;0.00;;;;;;;;;;5050523;28;20192;-74
2021/04/11 12:50:09;;;;;;;0.00;0.00;;;;;;;;;;5032462;28;20176;-72
2021/04/11 12:52:54;;;;;;;0.52;0.52;;;;;;;;;;5032502;28;20180;-73
2021/04/11 12:55:21;;;;;;;0.00;0.00;;;;;;;;;;5050517;28;20229;-73
2021/04/11 12:57:56;;;;;;;0.00;0.00;;;;;;;;;;5050351;28;20169;-73
2021/04/11 13:00:25;;;;;;;0.38;0.38;;;;;;;;;;5066563;28;20237;-73
2021/04/11 13:03:07;;;;;;;0.80;0.80;;;;;;;;;;5052343;28;20200;-73
2021/04/11 13:05:38;;;;;;;0.10;0.10;;;;;;;;;;5052179;28;20180;-73
2021/04/11 13:08:08;;;;;;;0.00;0.00;;;;;;;;;;5064357;28;20223;-73
2021/04/11 13:10:44;;;;;;;0.20;0.20;;;;;;;;;;5080676;28;20176;-74
2021/04/11 13:13:21;;;;;;;0.17;0.17;;;;;;;;;;5070126;28;20188;-73
2021/04/11 13:15:58;;;;;;;0.03;0.03;;;;;;;;;;5069171;28;20176;-73
2021/04/11 13:18:43;;;;;;;0.00;0.00;;;;;;;;;;5070042;28;20184;-73
2021/04/11 13:21:27;;;;;;;0.00;0.00;;;;;;;;;;5069951;28;20176;-73
2021/04/11 13:23:57;;;;;;;0.00;0.00;;;;;;;;;;5069811;28;20202;-73
2021/04/11 13:26:43;;;;;;;0.32;0.32;;;;;;;;;;5069777;28;20571;-73
2021/04/11 13:29:15;;;;;;;0.00;0.00;;;;;;;;;;5068677;28;20195;-73
2021/04/11 13:31:54;;;;;;;0.00;0.00;;;;;;;;;;5069766;28;20176;-73
2021/04/11 13:34:33;;;;;;;0.70;0.20;;;;;;;;;;5069385;28;20196;-74
2021/04/11 13:36:59;;;;;;;0.10;0.10;;;;;;;;;;5069615;28;20222;-73
2021/04/11 13:39:29;;;;;;;0.00;0.00;;;;;;;;;;5050583;28;20169;-73
2021/04/11 13:41:55;;;;;;;0.00;0.00;;;;;;;;;;5051626;28;20169;-73
2021/04/11 13:44:36;;;;;;;0.00;0.00;;;;;;;;;;5069456;28;20207;-73
2021/04/11 13:47:15;;;;;;;0.10;0.10;;;;;;;;;;5051550;28;20200;-73
2021/04/11 13:49:45;;;;;;;0.00;0.00;;;;;;;;;;5069394;28;20153;-75
2021/04/11 13:52:11;;;;;;;0.10;0.10;;;;;;;;;;5069300;28;20216;-74
2021/04/11 13:54:44;;;;;;;0.10;0.10;;;;;;;;;;5069294;28;20196;-74
2021/04/11 13:57:25;;;;;;;0.00;0.00;;;;;;;;;;5051444;28;20288;-74
2021/04/11 14:00:18;;;;;;;0.10;0.10;;;;;;;;;;5051339;28;20283;-74
2021/04/11 14:02:48;;;;;;;0.13;0.13;;;;;;;;;;5047667;28;20295;-73
2021/04/11 14:05:17;;;;;;;0.00;0.00;;;;;;;;;;5069170;28;20653;-74
2021/04/11 14:07:46;;;;;;;0.10;0.10;;;;;;;;;;5078543;28;20207;-73
2021/04/11 14:10:31;;;;;;;0.00;0.00;;;;;;;;;;5082766;28;20557;-74
2021/04/11 14:13:21;;;;;;;0.00;0.00;;;;;;;;;;5068906;28;20347;-74
2021/04/11 14:15:48;;;;;;;0.17;0.17;;;;;;;;;;5056325;28;20185;-74
2021/04/11 14:18:20;;;;;;;0.00;0.00;;;;;;;;;;5069088;28;20161;-73
2021/04/11 14:20:51;;;;;;;0.10;0.10;;;;;;;;;;5068981;28;20176;-74
2021/04/11 14:23:37;;;;;;;0.05;0.05;;;;;;;;;;5049731;28;20257;-74
2021/04/11 14:26:08;;;;;;;0.30;0.28;;;;;;;;;;5040148;28;20199;-67
2021/04/11 14:28:37;;;;;;;0.10;0.10;;;;;;;;;;5050450;28;20913;-67
2021/04/11 14:31:15;;;;;;;0.15;0.15;;;;;;;;;;5061036;28;20181;-68
2021/04/11 14:33:49;;;;;;;0.05;0.05;;;;;;;;;;5050878;28;20200;-67
2021/04/11 14:36:16;;;;;;;0.08;0.08;;;;;;;;;;5068847;28;20669;-67
2021/04/11 14:38:45;;;;;;;0.00;0.00;;;;;;;;;;5065799;28;20242;-67
2021/04/11 14:41:23;;;;;;;0.10;0.10;;;;;;;;;;5029972;28;20165;-67
2021/04/11 14:43:59;;;;;;;0.00;0.00;;;;;;;;;;5048724;28;20199;-67
2021/04/11 14:46:38;;;;;;;0.10;0.10;;;;;;;;;;5050471;28;20256;-67
2021/04/11 14:49:10;;;;;;;0.10;0.10;;;;;;;;;;5067219;28;20247;-67
2021/04/11 14:51:36;;;;;;;0.10;0.10;;;;;;;;;;5053743;28;20213;-68
2021/04/11 14:54:17;;;;;;;0.85;0.57;;;;;;;;;;5048710;28;20161;-68
2021/04/11 14:56:59;;;;;;;0.10;0.10;;;;;;;;;;5030702;28;20169;-67
2021/04/11 14:59:33;;;;;;;0.47;0.47;;;;;;;;;;5060402;28;20176;-68
2021/04/11 15:02:18;;;;;;;0.20;0.20;;;;;;;;;;5049285;28;20210;-67
2021/04/11 15:04:56;;;;;;;0.00;0.00;;;;;;;;;;5022764;28;20215;-68
2021/04/11 15:07:29;;;;;;;0.00;0.00;;;;;;;;;;5030905;28;20205;-68
2021/04/11 15:10:05;;;;;;;0.10;0.10;;;;;;;;;;5048286;28;20165;-68
2021/04/11 15:12:38;;;;;;;0.00;0.00;;;;;;;;;;5030597;28;20196;-69
2021/04/11 15:15:07;;;;;;;0.22;0.22;;;;;;;;;;5046911;28;20180;-68
2021/04/11 15:17:51;;;;;;;0.30;0.30;;;;;;;;;;5030776;28;20241;-68